createdAt,value
2023-04-05T00:10:26.859Z,7.20
2023-04-05T00:25:27.071Z,5.30
2023-04-05T00:40:28.121Z,5.30
2023-04-05T00:55:27.781Z,5.10
2023-04-05T01:10:27.878Z,5.30
2023-04-05T01:25:28.397Z,5.30
2023-04-05T01:40:28.111Z,5.60
2023-04-05T01:55:28.180Z,8.40
2023-04-05T02:10:28.743Z,6.70
2023-04-05T02:25:28.429Z,4.80
2023-04-05T02:40:28.954Z,6.00
2023-04-05T02:55:29.037Z,4.10
2023-04-05T03:10:28.865Z,4.90
2023-04-05T03:25:28.950Z,3.70
2023-04-05T03:40:29.048Z,4.40
2023-04-05T03:55:29.093Z,4.10
2023-04-05T04:10:29.704Z,5.10
2023-04-05T04:25:29.375Z,5.40
2023-04-05T04:40:29.416Z,30.90
2023-04-05T04:55:29.480Z,1389.70
2023-04-05T05:10:29.581Z,905.10
2023-04-05T05:25:30.101Z,591.00
2023-04-05T05:40:29.781Z,504.40
2023-04-05T05:55:30.279Z,608.50
2023-04-05T06:10:30.023Z,666.00
2023-04-05T06:25:30.131Z,433.90
2023-04-05T06:40:30.310Z,653.90
2023-04-05T06:55:30.272Z,194.20
2023-04-05T07:10:30.399Z,176.30
2023-04-05T07:25:30.558Z,42.80
2023-04-05T07:40:30.589Z,22.80
2023-04-05T07:55:30.689Z,10.20
2023-04-05T08:10:30.795Z,6.50
2023-04-05T08:25:31.409Z,5.80
2023-04-05T08:40:31.984Z,27.20
2023-04-05T08:55:32.135Z,24.00
2023-04-05T09:10:32.228Z,5.40
2023-04-05T09:25:32.347Z,4.30
2023-04-05T09:40:32.409Z,5.00
2023-04-05T09:55:32.436Z,6.00
2023-04-05T10:10:33.003Z,5.00
2023-04-05T10:25:32.586Z,6.00
2023-04-05T10:40:32.726Z,7.10
2023-04-05T10:55:32.800Z,5.20
2023-04-05T11:10:33.430Z,30.90
2023-04-05T11:25:34.013Z,146.20
2023-04-05T11:40:34.080Z,3.40
2023-04-05T11:55:34.568Z,4.60
2023-04-05T12:10:34.258Z,5.30
2023-04-05T12:25:34.331Z,12.00
2023-04-05T12:40:34.417Z,17.40
2023-04-05T12:55:34.899Z,3.60
2023-04-05T13:10:35.013Z,5.00
2023-04-05T13:25:34.670Z,4.10
2023-04-05T13:40:34.732Z,4.60
2023-04-05T13:55:34.814Z,4.90
2023-04-05T14:10:34.908Z,3.00
2023-04-05T14:25:35.097Z,48.20
2023-04-05T14:40:35.572Z,43.40
2023-04-05T14:55:35.178Z,170.80
2023-04-05T15:10:35.678Z,113.60
2023-04-05T15:25:35.836Z,125.80
2023-04-05T15:40:35.438Z,115.80
2023-04-05T15:55:35.945Z,191.60
2023-04-05T16:10:35.654Z,183.00
2023-04-05T16:25:36.158Z,130.90
2023-04-05T16:40:36.204Z,161.20
2023-04-05T16:55:35.861Z,147.50
2023-04-05T17:10:36.401Z,43.10
2023-04-05T17:25:36.072Z,37.90
2023-04-05T17:40:36.139Z,4.30
2023-04-05T17:55:36.217Z,5.50
2023-04-05T18:10:36.783Z,10.60
2023-04-05T18:25:36.928Z,5.20
2023-04-05T18:40:36.572Z,7.00
2023-04-05T18:55:37.081Z,6.40
2023-04-05T19:10:36.847Z,4.60
2023-04-05T19:25:36.938Z,3.70
2023-04-05T19:40:36.930Z,3.50
2023-04-05T19:55:37.591Z,7.70
2023-04-05T20:10:38.144Z,7.30
2023-04-05T20:25:38.719Z,10.20
2023-04-05T20:40:38.354Z,5.80
2023-04-05T20:55:38.873Z,6.80
2023-04-05T21:10:38.577Z,5.10
2023-04-05T21:25:39.166Z,6.20
2023-04-05T21:40:38.806Z,7.30
2023-04-05T21:55:38.932Z,6.40
2023-04-05T22:10:38.962Z,7.00
2023-04-05T22:25:39.138Z,6.20
2023-04-05T22:40:39.179Z,7.90
2023-04-05T22:55:39.255Z,6.30
2023-04-05T23:10:40.508Z,5.70
2023-04-05T23:25:40.603Z,7.20
2023-04-05T23:40:40.609Z,5.70
2023-04-05T23:55:41.166Z,5.50
